sensor_id;sensor_type;location;lat;lon;timestamp;P1;durP1;ratioP1;P2;durP2;ratioP2
20844;SDS011;10583;49.084;8.646;2022-07-06T00:02:09;1.80;;;1.80;;
20844;SDS011;10583;49.084;8.646;2022-07-06T00:04:35;1.50;;;1.50;;
20844;SDS011;10583;49.084;8.646;2022-07-06T00:07:02;1.70;;;1.70;;
20844;SDS011;10583;49.084;8.646;2022-07-06T00:09:30;1.77;;;1.77;;
20844;SDS011;10583;49.084;8.646;2022-07-06T00:11:57;2.13;;;2.13;;
20844;SDS011;10583;49.084;8.646;2022-07-06T00:14:24;1.80;;;1.80;;
20844;SDS011;10583;49.084;8.646;2022-07-06T00:16:50;1.90;;;1.90;;
20844;SDS011;10583;49.084;8.646;2022-07-06T00:19:17;1.50;;;1.50;;
20844;SDS011;10583;49.084;8.646;2022-07-06T00:21:44;1.87;;;1.87;;
20844;SDS011;10583;49.084;8.646;2022-07-06T00:24:10;1.67;;;1.67;;
20844;SDS011;10583;49.084;8.646;2022-07-06T00:26:38;1.80;;;1.80;;
20844;SDS011;10583;49.084;8.646;2022-07-06T00:29:05;2.17;;;2.17;;
20844;SDS011;10583;49.084;8.646;2022-07-06T00:31:32;2.00;;;2.00;;
20844;SDS011;10583;49.084;8.646;2022-07-06T00:33:58;2.23;;;2.23;;
20844;SDS011;10583;49.084;8.646;2022-07-06T00:36:25;1.80;;;1.80;;
20844;SDS011;10583;49.084;8.646;2022-07-06T00:38:52;2.10;;;2.10;;
20844;SDS011;10583;49.084;8.646;2022-07-06T00:41:19;2.40;;;2.40;;
20844;SDS011;10583;49.084;8.646;2022-07-06T00:43:47;2.10;;;2.10;;
20844;SDS011;10583;49.084;8.646;2022-07-06T00:46:15;2.10;;;2.10;;
20844;SDS011;10583;49.084;8.646;2022-07-06T00:48:42;1.93;;;1.93;;
20844;SDS011;10583;49.084;8.646;2022-07-06T00:51:08;2.33;;;2.33;;
20844;SDS011;10583;49.084;8.646;2022-07-06T00:53:36;2.30;;;2.30;;
20844;SDS011;10583;49.084;8.646;2022-07-06T00:56:04;2.37;;;2.37;;
20844;SDS011;10583;49.084;8.646;2022-07-06T00:58:31;2.13;;;2.13;;
20844;SDS011;10583;49.084;8.646;2022-07-06T01:00:59;2.20;;;2.20;;
20844;SDS011;10583;49.084;8.646;2022-07-06T01:03:26;2.30;;;2.30;;
20844;SDS011;10583;49.084;8.646;2022-07-06T01:05:52;2.20;;;2.20;;
20844;SDS011;10583;49.084;8.646;2022-07-06T01:08:19;2.50;;;2.50;;
20844;SDS011;10583;49.084;8.646;2022-07-06T01:10:46;2.30;;;2.30;;
20844;SDS011;10583;49.084;8.646;2022-07-06T01:13:13;1.87;;;1.87;;
20844;SDS011;10583;49.084;8.646;2022-07-06T01:15:39;2.20;;;2.20;;
20844;SDS011;10583;49.084;8.646;2022-07-06T01:18:08;2.10;;;2.10;;
20844;SDS011;10583;49.084;8.646;2022-07-06T01:20:38;2.43;;;2.43;;
20844;SDS011;10583;49.084;8.646;2022-07-06T01:23:04;2.27;;;2.27;;
20844;SDS011;10583;49.084;8.646;2022-07-06T01:25:31;2.10;;;2.10;;
20844;SDS011;10583;49.084;8.646;2022-07-06T01:27:58;2.00;;;2.00;;
20844;SDS011;10583;49.084;8.646;2022-07-06T01:30:25;2.20;;;2.20;;
20844;SDS011;10583;49.084;8.646;2022-07-06T01:32:51;2.20;;;2.20;;
20844;SDS011;10583;49.084;8.646;2022-07-06T01:35:18;2.10;;;2.10;;
20844;SDS011;10583;49.084;8.646;2022-07-06T01:37:47;2.00;;;2.00;;
20844;SDS011;10583;49.084;8.646;2022-07-06T01:40:14;2.07;;;2.07;;
20844;SDS011;10583;49.084;8.646;2022-07-06T01:42:40;2.60;;;2.60;;
20844;SDS011;10583;49.084;8.646;2022-07-06T01:45:08;1.83;;;1.83;;
20844;SDS011;10583;49.084;8.646;2022-07-06T01:47:36;2.40;;;2.40;;
20844;SDS011;10583;49.084;8.646;2022-07-06T01:50:04;2.27;;;2.27;;
20844;SDS011;10583;49.084;8.646;2022-07-06T01:52:33;2.20;;;2.20;;
20844;SDS011;10583;49.084;8.646;2022-07-06T01:55:02;2.63;;;2.63;;
20844;SDS011;10583;49.084;8.646;2022-07-06T01:57:29;2.40;;;2.40;;
20844;SDS011;10583;49.084;8.646;2022-07-06T01:59:55;2.53;;;2.53;;
20844;SDS011;10583;49.084;8.646;2022-07-06T02:02:22;2.00;;;2.00;;
20844;SDS011;10583;49.084;8.646;2022-07-06T02:04:49;2.40;;;2.40;;
20844;SDS011;10583;49.084;8.646;2022-07-06T02:07:15;2.17;;;2.17;;
20844;SDS011;10583;49.084;8.646;2022-07-06T02:09:42;2.80;;;2.80;;
20844;SDS011;10583;49.084;8.646;2022-07-06T02:12:10;2.60;;;2.60;;
20844;SDS011;10583;49.084;8.646;2022-07-06T02:14:37;2.60;;;2.60;;
20844;SDS011;10583;49.084;8.646;2022-07-06T02:17:03;2.90;;;2.90;;
20844;SDS011;10583;49.084;8.646;2022-07-06T02:19:30;3.03;;;3.03;;
20844;SDS011;10583;49.084;8.646;2022-07-06T02:21:57;2.60;;;2.60;;
20844;SDS011;10583;49.084;8.646;2022-07-06T02:24:23;2.83;;;2.83;;
20844;SDS011;10583;49.084;8.646;2022-07-06T02:26:50;2.80;;;2.80;;
20844;SDS011;10583;49.084;8.646;2022-07-06T02:29:18;2.70;;;2.70;;
20844;SDS011;10583;49.084;8.646;2022-07-06T02:31:46;2.60;;;2.60;;
20844;SDS011;10583;49.084;8.646;2022-07-06T02:34:13;2.90;;;2.90;;
20844;SDS011;10583;49.084;8.646;2022-07-06T02:36:40;3.30;;;3.30;;
20844;SDS011;10583;49.084;8.646;2022-07-06T02:39:06;3.07;;;3.07;;
20844;SDS011;10583;49.084;8.646;2022-07-06T02:41:33;2.90;;;2.90;;
20844;SDS011;10583;49.084;8.646;2022-07-06T02:44:00;3.30;;;3.30;;
20844;SDS011;10583;49.084;8.646;2022-07-06T02:46:28;2.90;;;2.90;;
20844;SDS011;10583;49.084;8.646;2022-07-06T02:48:54;3.07;;;3.07;;
20844;SDS011;10583;49.084;8.646;2022-07-06T02:51:24;3.07;;;3.07;;
20844;SDS011;10583;49.084;8.646;2022-07-06T02:53:51;2.80;;;2.80;;
20844;SDS011;10583;49.084;8.646;2022-07-06T02:56:17;3.27;;;3.27;;
20844;SDS011;10583;49.084;8.646;2022-07-06T02:58:44;3.20;;;3.20;;
20844;SDS011;10583;49.084;8.646;2022-07-06T03:01:11;3.27;;;3.27;;
20844;SDS011;10583;49.084;8.646;2022-07-06T03:03:39;3.43;;;3.43;;
20844;SDS011;10583;49.084;8.646;2022-07-06T03:06:05;3.30;;;3.30;;
20844;SDS011;10583;49.084;8.646;2022-07-06T03:08:32;2.70;;;2.70;;
20844;SDS011;10583;49.084;8.646;2022-07-06T03:11:00;3.10;;;3.10;;
20844;SDS011;10583;49.084;8.646;2022-07-06T03:13:26;3.23;;;3.23;;
20844;SDS011;10583;49.084;8.646;2022-07-06T03:15:53;2.90;;;2.90;;
20844;SDS011;10583;49.084;8.646;2022-07-06T03:18:20;3.10;;;3.10;;
20844;SDS011;10583;49.084;8.646;2022-07-06T03:20:48;3.20;;;3.20;;
20844;SDS011;10583;49.084;8.646;2022-07-06T03:23:15;3.20;;;3.20;;
20844;SDS011;10583;49.084;8.646;2022-07-06T03:25:42;3.67;;;3.67;;
20844;SDS011;10583;49.084;8.646;2022-07-06T03:28:08;3.17;;;3.17;;
20844;SDS011;10583;49.084;8.646;2022-07-06T03:30:35;3.20;;;3.20;;
20844;SDS011;10583;49.084;8.646;2022-07-06T03:33:02;3.20;;;3.20;;
20844;SDS011;10583;49.084;8.646;2022-07-06T03:35:28;3.40;;;3.40;;
20844;SDS011;10583;49.084;8.646;2022-07-06T03:37:56;3.30;;;3.30;;
20844;SDS011;10583;49.084;8.646;2022-07-06T03:40:23;3.50;;;3.50;;
20844;SDS011;10583;49.084;8.646;2022-07-06T03:42:50;3.47;;;3.47;;
20844;SDS011;10583;49.084;8.646;2022-07-06T03:45:16;3.20;;;3.20;;
20844;SDS011;10583;49.084;8.646;2022-07-06T03:47:43;3.53;;;3.53;;
20844;SDS011;10583;49.084;8.646;2022-07-06T03:50:10;3.30;;;3.30;;
20844;SDS011;10583;49.084;8.646;2022-07-06T03:52:36;3.77;;;3.77;;
20844;SDS011;10583;49.084;8.646;2022-07-06T03:55:07;3.27;;;3.27;;
20844;SDS011;10583;49.084;8.646;2022-07-06T03:57:35;3.20;;;3.20;;
20844;SDS011;10583;49.084;8.646;2022-07-06T04:00:01;3.60;;;3.60;;
20844;SDS011;10583;49.084;8.646;2022-07-06T04:02:28;3.37;;;3.37;;
20844;SDS011;10583;49.084;8.646;2022-07-06T04:04:55;3.60;;;3.60;;
20844;SDS011;10583;49.084;8.646;2022-07-06T04:07:22;3.47;;;3.47;;
20844;SDS011;10583;49.084;8.646;2022-07-06T04:09:48;3.80;;;3.80;;
20844;SDS011;10583;49.084;8.646;2022-07-06T04:12:17;3.50;;;3.50;;
20844;SDS011;10583;49.084;8.646;2022-07-06T04:14:43;3.53;;;3.53;;
20844;SDS011;10583;49.084;8.646;2022-07-06T04:17:10;3.50;;;3.50;;
20844;SDS011;10583;49.084;8.646;2022-07-06T04:19:54;3.80;;;3.80;;
20844;SDS011;10583;49.084;8.646;2022-07-06T04:22:21;4.27;;;4.27;;
20844;SDS011;10583;49.084;8.646;2022-07-06T04:24:48;3.40;;;3.40;;
20844;SDS011;10583;49.084;8.646;2022-07-06T04:27:14;4.50;;;4.50;;
20844;SDS011;10583;49.084;8.646;2022-07-06T04:29:42;3.27;;;3.27;;
20844;SDS011;10583;49.084;8.646;2022-07-06T04:32:09;3.87;;;3.87;;
20844;SDS011;10583;49.084;8.646;2022-07-06T04:34:36;3.63;;;3.63;;
20844;SDS011;10583;49.084;8.646;2022-07-06T04:37:02;4.00;;;4.00;;
20844;SDS011;10583;49.084;8.646;2022-07-06T04:39:29;3.67;;;3.67;;
20844;SDS011;10583;49.084;8.646;2022-07-06T04:41:56;4.23;;;4.23;;
20844;SDS011;10583;49.084;8.646;2022-07-06T04:44:24;3.60;;;3.60;;
20844;SDS011;10583;49.084;8.646;2022-07-06T04:46:51;3.20;;;3.20;;
20844;SDS011;10583;49.084;8.646;2022-07-06T04:49:18;3.70;;;3.70;;
20844;SDS011;10583;49.084;8.646;2022-07-06T04:51:44;3.40;;;3.40;;
20844;SDS011;10583;49.084;8.646;2022-07-06T04:54:11;3.13;;;3.13;;
20844;SDS011;10583;49.084;8.646;2022-07-06T04:56:38;3.43;;;3.43;;
20844;SDS011;10583;49.084;8.646;2022-07-06T04:59:04;2.83;;;2.83;;
20844;SDS011;10583;49.084;8.646;2022-07-06T05:01:32;3.50;;;3.50;;
20844;SDS011;10583;49.084;8.646;2022-07-06T05:03:59;3.20;;;3.20;;
20844;SDS011;10583;49.084;8.646;2022-07-06T05:06:26;2.50;;;2.50;;
20844;SDS011;10583;49.084;8.646;2022-07-06T05:08:52;2.40;;;2.40;;
20844;SDS011;10583;49.084;8.646;2022-07-06T05:11:19;2.13;;;2.13;;
20844;SDS011;10583;49.084;8.646;2022-07-06T05:13:46;2.53;;;2.53;;
20844;SDS011;10583;49.084;8.646;2022-07-06T05:16:12;2.83;;;2.83;;
20844;SDS011;10583;49.084;8.646;2022-07-06T05:18:40;2.37;;;2.37;;
20844;SDS011;10583;49.084;8.646;2022-07-06T05:21:07;2.53;;;2.53;;
20844;SDS011;10583;49.084;8.646;2022-07-06T05:23:33;2.20;;;2.20;;
20844;SDS011;10583;49.084;8.646;2022-07-06T05:26:00;2.87;;;2.87;;
20844;SDS011;10583;49.084;8.646;2022-07-06T05:28:27;2.50;;;2.50;;
20844;SDS011;10583;49.084;8.646;2022-07-06T05:30:54;2.20;;;2.20;;
20844;SDS011;10583;49.084;8.646;2022-07-06T05:33:20;2.60;;;2.60;;
20844;SDS011;10583;49.084;8.646;2022-07-06T05:35:48;2.43;;;2.43;;
20844;SDS011;10583;49.084;8.646;2022-07-06T05:38:15;2.60;;;2.60;;
20844;SDS011;10583;49.084;8.646;2022-07-06T05:40:42;2.47;;;2.47;;
20844;SDS011;10583;49.084;8.646;2022-07-06T05:43:08;2.10;;;2.10;;
20844;SDS011;10583;49.084;8.646;2022-07-06T05:45:35;2.27;;;2.27;;
20844;SDS011;10583;49.084;8.646;2022-07-06T05:48:02;2.50;;;2.50;;
20844;SDS011;10583;49.084;8.646;2022-07-06T05:50:48;2.40;;;2.40;;
20844;SDS011;10583;49.084;8.646;2022-07-06T05:53:15;2.00;;;2.00;;
20844;SDS011;10583;49.084;8.646;2022-07-06T05:55:43;2.37;;;2.37;;
20844;SDS011;10583;49.084;8.646;2022-07-06T05:58:10;2.20;;;2.20;;
20844;SDS011;10583;49.084;8.646;2022-07-06T06:00:37;2.17;;;2.17;;
20844;SDS011;10583;49.084;8.646;2022-07-06T06:03:03;2.37;;;2.37;;
20844;SDS011;10583;49.084;8.646;2022-07-06T06:05:30;2.10;;;2.10;;
20844;SDS011;10583;49.084;8.646;2022-07-06T06:07:58;2.10;;;2.10;;
20844;SDS011;10583;49.084;8.646;2022-07-06T06:10:25;1.87;;;1.87;;
20844;SDS011;10583;49.084;8.646;2022-07-06T06:12:52;2.50;;;2.50;;
20844;SDS011;10583;49.084;8.646;2022-07-06T06:15:18;2.03;;;2.03;;
20844;SDS011;10583;49.084;8.646;2022-07-06T06:17:45;2.30;;;2.30;;
20844;SDS011;10583;49.084;8.646;2022-07-06T06:20:13;2.20;;;2.20;;
20844;SDS011;10583;49.084;8.646;2022-07-06T06:22:44;2.20;;;2.20;;
20844;SDS011;10583;49.084;8.646;2022-07-06T06:25:13;2.37;;;2.37;;
20844;SDS011;10583;49.084;8.646;2022-07-06T06:27:40;2.10;;;2.10;;
20844;SDS011;10583;49.084;8.646;2022-07-06T06:30:07;1.73;;;1.73;;
20844;SDS011;10583;49.084;8.646;2022-07-06T06:32:35;2.00;;;2.00;;
20844;SDS011;10583;49.084;8.646;2022-07-06T06:35:02;2.27;;;2.27;;
20844;SDS011;10583;49.084;8.646;2022-07-06T06:37:28;2.47;;;2.47;;
20844;SDS011;10583;49.084;8.646;2022-07-06T06:39:55;2.10;;;2.10;;
20844;SDS011;10583;49.084;8.646;2022-07-06T06:42:23;1.80;;;1.80;;
20844;SDS011;10583;49.084;8.646;2022-07-06T06:44:50;1.90;;;1.90;;
20844;SDS011;10583;49.084;8.646;2022-07-06T06:47:17;2.30;;;2.30;;
20844;SDS011;10583;49.084;8.646;2022-07-06T06:49:45;2.20;;;2.20;;
20844;SDS011;10583;49.084;8.646;2022-07-06T06:52:12;2.30;;;2.30;;
20844;SDS011;10583;49.084;8.646;2022-07-06T06:54:39;2.25;;;2.25;;
20844;SDS011;10583;49.084;8.646;2022-07-06T06:57:05;2.10;;;2.10;;
20844;SDS011;10583;49.084;8.646;2022-07-06T06:59:33;2.03;;;2.03;;
20844;SDS011;10583;49.084;8.646;2022-07-06T07:02:00;1.92;;;1.92;;
20844;SDS011;10583;49.084;8.646;2022-07-06T07:04:27;2.20;;;2.20;;
20844;SDS011;10583;49.084;8.646;2022-07-06T07:06:55;1.83;;;1.83;;
20844;SDS011;10583;49.084;8.646;2022-07-06T07:09:22;1.90;;;1.90;;
20844;SDS011;10583;49.084;8.646;2022-07-06T07:11:49;2.03;;;2.03;;
20844;SDS011;10583;49.084;8.646;2022-07-06T07:14:15;2.10;;;2.10;;
20844;SDS011;10583;49.084;8.646;2022-07-06T07:16:43;1.90;;;1.90;;
20844;SDS011;10583;49.084;8.646;2022-07-06T07:19:10;2.15;;;2.15;;
20844;SDS011;10583;49.084;8.646;2022-07-06T07:21:37;2.20;;;2.20;;
20844;SDS011;10583;49.084;8.646;2022-07-06T07:24:03;2.75;;;2.75;;
20844;SDS011;10583;49.084;8.646;2022-07-06T07:26:30;2.38;;;2.38;;
20844;SDS011;10583;49.084;8.646;2022-07-06T07:28:57;2.20;;;2.20;;
20844;SDS011;10583;49.084;8.646;2022-07-06T07:31:24;2.30;;;2.30;;
20844;SDS011;10583;49.084;8.646;2022-07-06T07:33:52;2.20;;;2.20;;
20844;SDS011;10583;49.084;8.646;2022-07-06T07:36:21;2.38;;;2.38;;
20844;SDS011;10583;49.084;8.646;2022-07-06T07:38:48;2.20;;;2.20;;
20844;SDS011;10583;49.084;8.646;2022-07-06T07:41:15;2.35;;;2.35;;
20844;SDS011;10583;49.084;8.646;2022-07-06T07:43:41;2.60;;;2.60;;
20844;SDS011;10583;49.084;8.646;2022-07-06T07:46:08;2.30;;;2.30;;
20844;SDS011;10583;49.084;8.646;2022-07-06T07:48:35;2.67;;;2.67;;
20844;SDS011;10583;49.084;8.646;2022-07-06T07:51:03;2.17;;;2.17;;
20844;SDS011;10583;49.084;8.646;2022-07-06T07:53:30;2.30;;;2.30;;
20844;SDS011;10583;49.084;8.646;2022-07-06T07:55:57;2.70;;;2.70;;
20844;SDS011;10583;49.084;8.646;2022-07-06T07:58:23;2.50;;;2.50;;
20844;SDS011;10583;49.084;8.646;2022-07-06T08:00:50;2.58;;;2.58;;
20844;SDS011;10583;49.084;8.646;2022-07-06T08:03:16;2.50;;;2.50;;
20844;SDS011;10583;49.084;8.646;2022-07-06T08:05:43;2.20;;;2.20;;
20844;SDS011;10583;49.084;8.646;2022-07-06T08:08:13;2.30;;;2.30;;
20844;SDS011;10583;49.084;8.646;2022-07-06T08:10:40;2.28;;;2.28;;
20844;SDS011;10583;49.084;8.646;2022-07-06T08:13:07;2.50;;;2.50;;
20844;SDS011;10583;49.084;8.646;2022-07-06T08:15:35;2.70;;;2.70;;
20844;SDS011;10583;49.084;8.646;2022-07-06T08:18:02;3.15;;;3.15;;
20844;SDS011;10583;49.084;8.646;2022-07-06T08:20:29;2.55;;;2.55;;
20844;SDS011;10583;49.084;8.646;2022-07-06T08:22:55;2.70;;;2.70;;
20844;SDS011;10583;49.084;8.646;2022-07-06T08:25:23;2.45;;;2.45;;
20844;SDS011;10583;49.084;8.646;2022-07-06T08:27:50;2.85;;;2.85;;
20844;SDS011;10583;49.084;8.646;2022-07-06T08:30:17;2.22;;;2.22;;
20844;SDS011;10583;49.084;8.646;2022-07-06T08:32:43;2.60;;;2.60;;
20844;SDS011;10583;49.084;8.646;2022-07-06T08:35:10;2.60;;;2.60;;
20844;SDS011;10583;49.084;8.646;2022-07-06T08:37:37;2.60;;;2.60;;
20844;SDS011;10583;49.084;8.646;2022-07-06T08:40:04;2.38;;;2.38;;
20844;SDS011;10583;49.084;8.646;2022-07-06T08:42:33;2.78;;;2.78;;
20844;SDS011;10583;49.084;8.646;2022-07-06T08:45:01;2.50;;;2.50;;
20844;SDS011;10583;49.084;8.646;2022-07-06T08:47:29;2.20;;;2.20;;
20844;SDS011;10583;49.084;8.646;2022-07-06T08:49:56;2.80;;;2.80;;
20844;SDS011;10583;49.084;8.646;2022-07-06T08:52:24;2.47;;;2.47;;
20844;SDS011;10583;49.084;8.646;2022-07-06T08:54:51;2.33;;;2.33;;
20844;SDS011;10583;49.084;8.646;2022-07-06T08:57:18;2.60;;;2.60;;
20844;SDS011;10583;49.084;8.646;2022-07-06T08:59:46;2.50;;;2.50;;
20844;SDS011;10583;49.084;8.646;2022-07-06T09:02:13;2.67;;;2.67;;
20844;SDS011;10583;49.084;8.646;2022-07-06T09:04:40;2.30;;;2.30;;
20844;SDS011;10583;49.084;8.646;2022-07-06T09:07:09;2.55;;;2.55;;
20844;SDS011;10583;49.084;8.646;2022-07-06T09:09:37;2.40;;;2.40;;
20844;SDS011;10583;49.084;8.646;2022-07-06T09:12:08;2.15;;;2.15;;
20844;SDS011;10583;49.084;8.646;2022-07-06T09:14:38;2.70;;;2.70;;
20844;SDS011;10583;49.084;8.646;2022-07-06T09:17:06;2.40;;;2.40;;
20844;SDS011;10583;49.084;8.646;2022-07-06T09:19:33;2.33;;;2.33;;
20844;SDS011;10583;49.084;8.646;2022-07-06T09:22:01;2.35;;;2.35;;
20844;SDS011;10583;49.084;8.646;2022-07-06T09:24:28;2.63;;;2.63;;
20844;SDS011;10583;49.084;8.646;2022-07-06T09:26:56;3.28;;;3.28;;
20844;SDS011;10583;49.084;8.646;2022-07-06T09:29:27;3.00;;;3.00;;
20844;SDS011;10583;49.084;8.646;2022-07-06T09:31:55;2.78;;;2.78;;
20844;SDS011;10583;49.084;8.646;2022-07-06T09:34:24;2.80;;;2.80;;
20844;SDS011;10583;49.084;8.646;2022-07-06T09:37:05;3.60;;;3.60;;
20844;SDS011;10583;49.084;8.646;2022-07-06T09:39:32;3.30;;;3.30;;
20844;SDS011;10583;49.084;8.646;2022-07-06T09:42:00;3.45;;;3.45;;
20844;SDS011;10583;49.084;8.646;2022-07-06T09:44:29;3.33;;;3.33;;
20844;SDS011;10583;49.084;8.646;2022-07-06T09:46:58;3.00;;;3.00;;
20844;SDS011;10583;49.084;8.646;2022-07-06T09:49:27;3.20;;;3.20;;
20844;SDS011;10583;49.084;8.646;2022-07-06T09:51:54;2.65;;;2.65;;
20844;SDS011;10583;49.084;8.646;2022-07-06T09:54:22;2.70;;;2.70;;
20844;SDS011;10583;49.084;8.646;2022-07-06T09:56:50;3.00;;;3.00;;
20844;SDS011;10583;49.084;8.646;2022-07-06T09:59:17;3.53;;;3.53;;
20844;SDS011;10583;49.084;8.646;2022-07-06T10:01:46;2.70;;;2.70;;
20844;SDS011;10583;49.084;8.646;2022-07-06T10:04:15;2.60;;;2.60;;
20844;SDS011;10583;49.084;8.646;2022-07-06T10:06:44;2.55;;;2.55;;
20844;SDS011;10583;49.084;8.646;2022-07-06T10:09:11;2.92;;;2.92;;
20844;SDS011;10583;49.084;8.646;2022-07-06T10:11:40;3.35;;;3.35;;
20844;SDS011;10583;49.084;8.646;2022-07-06T10:14:08;2.70;;;2.70;;
20844;SDS011;10583;49.084;8.646;2022-07-06T10:16:37;2.90;;;2.90;;
20844;SDS011;10583;49.084;8.646;2022-07-06T10:19:05;2.83;;;2.83;;
20844;SDS011;10583;49.084;8.646;2022-07-06T10:21:33;2.42;;;2.42;;
20844;SDS011;10583;49.084;8.646;2022-07-06T10:24:03;2.55;;;2.55;;
20844;SDS011;10583;49.084;8.646;2022-07-06T10:26:30;2.50;;;2.50;;
20844;SDS011;10583;49.084;8.646;2022-07-06T10:28:59;3.00;;;3.00;;
20844;SDS011;10583;49.084;8.646;2022-07-06T10:31:26;2.28;;;2.28;;
20844;SDS011;10583;49.084;8.646;2022-07-06T10:33:55;2.20;;;2.20;;
20844;SDS011;10583;49.084;8.646;2022-07-06T10:36:23;2.00;;;2.00;;
20844;SDS011;10583;49.084;8.646;2022-07-06T10:38:51;2.50;;;2.50;;
20844;SDS011;10583;49.084;8.646;2022-07-06T10:41:29;2.03;;;2.03;;
20844;SDS011;10583;49.084;8.646;2022-07-06T10:43:56;2.20;;;2.20;;
20844;SDS011;10583;49.084;8.646;2022-07-06T10:46:23;2.38;;;2.38;;
20844;SDS011;10583;49.084;8.646;2022-07-06T10:48:55;2.42;;;2.42;;
20844;SDS011;10583;49.084;8.646;2022-07-06T10:51:23;1.90;;;1.90;;
20844;SDS011;10583;49.084;8.646;2022-07-06T10:53:55;1.80;;;1.80;;
20844;SDS011;10583;49.084;8.646;2022-07-06T10:56:31;2.10;;;2.10;;
20844;SDS011;10583;49.084;8.646;2022-07-06T10:59:01;2.47;;;2.47;;
20844;SDS011;10583;49.084;8.646;2022-07-06T11:01:28;2.15;;;2.15;;
20844;SDS011;10583;49.084;8.646;2022-07-06T11:04:04;1.95;;;1.95;;
20844;SDS011;10583;49.084;8.646;2022-07-06T11:06:33;1.92;;;1.92;;
20844;SDS011;10583;49.084;8.646;2022-07-06T11:09:01;2.17;;;2.17;;
20844;SDS011;10583;49.084;8.646;2022-07-06T11:11:39;2.22;;;2.22;;
20844;SDS011;10583;49.084;8.646;2022-07-06T11:14:10;2.00;;;2.00;;
20844;SDS011;10583;49.084;8.646;2022-07-06T11:16:39;1.77;;;1.77;;
20844;SDS011;10583;49.084;8.646;2022-07-06T11:19:26;1.85;;;1.85;;
20844;SDS011;10583;49.084;8.646;2022-07-06T11:21:53;1.48;;;1.48;;
20844;SDS011;10583;49.084;8.646;2022-07-06T11:24:23;1.60;;;1.60;;
20844;SDS011;10583;49.084;8.646;2022-07-06T11:26:53;1.60;;;1.60;;
20844;SDS011;10583;49.084;8.646;2022-07-06T11:29:21;1.77;;;1.77;;
20844;SDS011;10583;49.084;8.646;2022-07-06T11:31:50;1.38;;;1.38;;
20844;SDS011;10583;49.084;8.646;2022-07-06T11:34:18;1.38;;;1.38;;
20844;SDS011;10583;49.084;8.646;2022-07-06T11:36:46;1.75;;;1.75;;
20844;SDS011;10583;49.084;8.646;2022-07-06T11:39:13;1.60;;;1.60;;
20844;SDS011;10583;49.084;8.646;2022-07-06T11:41:40;1.55;;;1.55;;
20844;SDS011;10583;49.084;8.646;2022-07-06T11:44:10;1.60;;;1.60;;
20844;SDS011;10583;49.084;8.646;2022-07-06T11:46:36;1.70;;;1.70;;
20844;SDS011;10583;49.084;8.646;2022-07-06T11:49:04;1.80;;;1.80;;
20844;SDS011;10583;49.084;8.646;2022-07-06T11:51:32;1.38;;;1.38;;
20844;SDS011;10583;49.084;8.646;2022-07-06T11:54:01;1.60;;;1.60;;
20844;SDS011;10583;49.084;8.646;2022-07-06T11:56:33;1.98;;;1.98;;
20844;SDS011;10583;49.084;8.646;2022-07-06T11:59:00;1.48;;;1.48;;
20844;SDS011;10583;49.084;8.646;2022-07-06T12:01:29;1.63;;;1.63;;
20844;SDS011;10583;49.084;8.646;2022-07-06T12:03:57;1.40;;;1.40;;
20844;SDS011;10583;49.084;8.646;2022-07-06T12:06:25;1.25;;;1.25;;
20844;SDS011;10583;49.084;8.646;2022-07-06T12:08:53;1.60;;;1.60;;
20844;SDS011;10583;49.084;8.646;2022-07-06T12:11:21;1.58;;;1.58;;
20844;SDS011;10583;49.084;8.646;2022-07-06T12:13:50;1.30;;;1.30;;
20844;SDS011;10583;49.084;8.646;2022-07-06T12:16:17;1.30;;;1.30;;
20844;SDS011;10583;49.084;8.646;2022-07-06T12:18:47;1.70;;;1.70;;
20844;SDS011;10583;49.084;8.646;2022-07-06T12:21:14;1.52;;;1.52;;
20844;SDS011;10583;49.084;8.646;2022-07-06T12:23:43;1.42;;;1.42;;
20844;SDS011;10583;49.084;8.646;2022-07-06T12:26:11;1.25;;;1.25;;
20844;SDS011;10583;49.084;8.646;2022-07-06T12:28:38;1.70;;;1.70;;
20844;SDS011;10583;49.084;8.646;2022-07-06T12:31:06;1.13;;;1.13;;
20844;SDS011;10583;49.084;8.646;2022-07-06T12:33:32;1.42;;;1.42;;
20844;SDS011;10583;49.084;8.646;2022-07-06T12:36:13;1.50;;;1.50;;
20844;SDS011;10583;49.084;8.646;2022-07-06T12:38:44;1.20;;;1.20;;
20844;SDS011;10583;49.084;8.646;2022-07-06T12:41:25;1.20;;;1.20;;
20844;SDS011;10583;49.084;8.646;2022-07-06T12:43:59;1.08;;;1.08;;
20844;SDS011;10583;49.084;8.646;2022-07-06T12:46:28;1.30;;;1.30;;
20844;SDS011;10583;49.084;8.646;2022-07-06T12:48:56;1.10;;;1.10;;
20844;SDS011;10583;49.084;8.646;2022-07-06T12:51:26;1.45;;;1.45;;
20844;SDS011;10583;49.084;8.646;2022-07-06T12:53:53;1.30;;;1.30;;
20844;SDS011;10583;49.084;8.646;2022-07-06T12:59:26;1.40;;;1.40;;
20844;SDS011;10583;49.084;8.646;2022-07-06T13:01:53;1.38;;;1.38;;
20844;SDS011;10583;49.084;8.646;2022-07-06T13:04:22;1.65;;;1.65;;
20844;SDS011;10583;49.084;8.646;2022-07-06T13:06:50;1.50;;;1.50;;
20844;SDS011;10583;49.084;8.646;2022-07-06T13:09:18;1.27;;;1.27;;
20844;SDS011;10583;49.084;8.646;2022-07-06T13:11:46;1.33;;;1.33;;
20844;SDS011;10583;49.084;8.646;2022-07-06T13:14:13;1.50;;;1.50;;
20844;SDS011;10583;49.084;8.646;2022-07-06T13:16:40;1.35;;;1.35;;
20844;SDS011;10583;49.084;8.646;2022-07-06T13:19:06;1.20;;;1.20;;
20844;SDS011;10583;49.084;8.646;2022-07-06T13:21:34;1.23;;;1.23;;
20844;SDS011;10583;49.084;8.646;2022-07-06T13:24:04;1.20;;;1.20;;
20844;SDS011;10583;49.084;8.646;2022-07-06T13:26:31;1.27;;;1.27;;
20844;SDS011;10583;49.084;8.646;2022-07-06T13:28:58;1.50;;;1.50;;
20844;SDS011;10583;49.084;8.646;2022-07-06T13:31:25;1.45;;;1.45;;
20844;SDS011;10583;49.084;8.646;2022-07-06T13:33:52;1.30;;;1.30;;
20844;SDS011;10583;49.084;8.646;2022-07-06T13:36:19;1.48;;;1.48;;
20844;SDS011;10583;49.084;8.646;2022-07-06T13:38:46;1.30;;;1.30;;
20844;SDS011;10583;49.084;8.646;2022-07-06T13:41:15;1.13;;;1.13;;
20844;SDS011;10583;49.084;8.646;2022-07-06T13:43:42;1.10;;;1.10;;
20844;SDS011;10583;49.084;8.646;2022-07-06T13:46:09;1.35;;;1.35;;
20844;SDS011;10583;49.084;8.646;2022-07-06T13:48:36;1.02;;;1.02;;
20844;SDS011;10583;49.084;8.646;2022-07-06T13:51:03;1.13;;;1.13;;
20844;SDS011;10583;49.084;8.646;2022-07-06T13:53:30;1.40;;;1.40;;
20844;SDS011;10583;49.084;8.646;2022-07-06T13:55:57;1.20;;;1.20;;
20844;SDS011;10583;49.084;8.646;2022-07-06T13:58:25;1.20;;;1.20;;
20844;SDS011;10583;49.084;8.646;2022-07-06T14:00:52;1.20;;;1.20;;
20844;SDS011;10583;49.084;8.646;2022-07-06T14:03:19;0.98;;;0.98;;
20844;SDS011;10583;49.084;8.646;2022-07-06T14:05:46;1.17;;;1.17;;
20844;SDS011;10583;49.084;8.646;2022-07-06T14:08:13;1.15;;;1.15;;
20844;SDS011;10583;49.084;8.646;2022-07-06T14:10:40;1.20;;;1.20;;
20844;SDS011;10583;49.084;8.646;2022-07-06T14:13:06;1.23;;;1.23;;
20844;SDS011;10583;49.084;8.646;2022-07-06T14:15:34;1.20;;;1.20;;
20844;SDS011;10583;49.084;8.646;2022-07-06T14:18:01;1.20;;;1.20;;
20844;SDS011;10583;49.084;8.646;2022-07-06T14:20:28;1.05;;;1.05;;
20844;SDS011;10583;49.084;8.646;2022-07-06T14:22:55;1.38;;;1.38;;
20844;SDS011;10583;49.084;8.646;2022-07-06T14:25:21;1.33;;;1.33;;
20844;SDS011;10583;49.084;8.646;2022-07-06T14:27:48;1.00;;;1.00;;
20844;SDS011;10583;49.084;8.646;2022-07-06T14:30:15;1.70;;;1.70;;
20844;SDS011;10583;49.084;8.646;2022-07-06T14:32:43;1.10;;;1.10;;
20844;SDS011;10583;49.084;8.646;2022-07-06T14:35:09;1.08;;;1.08;;
20844;SDS011;10583;49.084;8.646;2022-07-06T14:37:36;1.20;;;1.20;;
20844;SDS011;10583;49.084;8.646;2022-07-06T14:40:03;1.08;;;1.08;;
20844;SDS011;10583;49.084;8.646;2022-07-06T14:42:31;1.30;;;1.30;;
20844;SDS011;10583;49.084;8.646;2022-07-06T14:44:57;1.23;;;1.23;;
20844;SDS011;10583;49.084;8.646;2022-07-06T14:47:24;1.33;;;1.33;;
20844;SDS011;10583;49.084;8.646;2022-07-06T14:49:52;1.20;;;1.20;;
20844;SDS011;10583;49.084;8.646;2022-07-06T14:52:19;1.20;;;1.20;;
20844;SDS011;10583;49.084;8.646;2022-07-06T14:54:46;1.20;;;1.20;;